sensor_id;sensor_type;location;lat;lon;timestamp;pressure;altitude;pressure_sealevel;temperature;humidity
34712;BME280;20941;42.408;25.634;2022-10-29T00:01:31;100703.78;;;11.04;84.99
34712;BME280;20941;42.408;25.634;2022-10-29T00:03:57;100755.53;;;11.29;84.93
34712;BME280;20941;42.408;25.634;2022-10-29T00:06:22;100744.34;;;11.08;85.61
34712;BME280;20941;42.408;25.634;2022-10-29T00:08:48;100749.38;;;11.17;85.92
34712;BME280;20941;42.408;25.634;2022-10-29T00:11:16;100743.19;;;11.20;85.82
34712;BME280;20941;42.408;25.634;2022-10-29T00:13:47;100742.59;;;11.23;85.21
34712;BME280;20941;42.408;25.634;2022-10-29T00:16:18;100737.28;;;11.16;85.31
34712;BME280;20941;42.408;25.634;2022-10-29T00:18:44;100745.69;;;11.21;86.18
34712;BME280;20941;42.408;25.634;2022-10-29T00:21:13;100740.38;;;11.20;88.00
34712;BME280;20941;42.408;25.634;2022-10-29T00:23:39;100733.59;;;11.16;88.47
34712;BME280;20941;42.408;25.634;2022-10-29T00:26:05;100734.75;;;11.15;89.02
34712;BME280;20941;42.408;25.634;2022-10-29T00:28:31;100732.53;;;11.06;89.21
34712;BME280;20941;42.408;25.634;2022-10-29T00:31:01;100728.84;;;11.11;89.45
34712;BME280;20941;42.408;25.634;2022-10-29T00:33:27;100726.03;;;11.06;89.85
34712;BME280;20941;42.408;25.634;2022-10-29T00:36:00;100733.91;;;11.09;90.59
34712;BME280;20941;42.408;25.634;2022-10-29T00:38:26;100708.34;;;10.95;90.79
34712;BME280;20941;42.408;25.634;2022-10-29T00:40:53;100738.16;;;11.06;90.72
34712;BME280;20941;42.408;25.634;2022-10-29T00:43:20;100730.81;;;11.05;90.48
34712;BME280;20941;42.408;25.634;2022-10-29T00:48:22;100716.25;;;10.83;90.84
34712;BME280;20941;42.408;25.634;2022-10-29T00:50:50;100713.97;;;10.85;90.96
34712;BME280;20941;42.408;25.634;2022-10-29T00:53:19;100728.03;;;10.90;91.64
34712;BME280;20941;42.408;25.634;2022-10-29T00:55:46;100723.00;;;10.87;92.07
34712;BME280;20941;42.408;25.634;2022-10-29T00:58:11;100710.06;;;10.75;92.27
34712;BME280;20941;42.408;25.634;2022-10-29T01:00:37;100721.56;;;10.89;92.37
34712;BME280;20941;42.408;25.634;2022-10-29T01:03:04;100699.38;;;10.72;92.28
34712;BME280;20941;42.408;25.634;2022-10-29T01:05:30;100695.44;;;10.68;92.68
34712;BME280;20941;42.408;25.634;2022-10-29T01:07:58;100655.53;;;10.46;93.50
34712;BME280;20941;42.408;25.634;2022-10-29T01:19:12;100713.97;;;10.85;93.19
34712;BME280;20941;42.408;25.634;2022-10-29T01:21:42;100698.81;;;10.70;92.82
34712;BME280;20941;42.408;25.634;2022-10-29T01:30:09;100703.59;;;10.75;95.35
34712;BME280;20941;42.408;25.634;2022-10-29T01:33:14;100705.00;;;10.72;95.20
34712;BME280;20941;42.408;25.634;2022-10-29T01:35:55;100697.41;;;10.68;95.30
34712;BME280;20941;42.408;25.634;2022-10-29T01:45:32;100694.31;;;10.59;100.00
34712;BME280;20941;42.408;25.634;2022-10-29T01:48:04;100644.84;;;10.27;100.00
34712;BME280;20941;42.408;25.634;2022-10-29T01:50:34;100693.78;;;10.52;100.00
34712;BME280;20941;42.408;25.634;2022-10-29T01:53:03;100671.53;;;10.35;100.00
34712;BME280;20941;42.408;25.634;2022-10-29T01:55:30;100681.97;;;10.50;100.00
34712;BME280;20941;42.408;25.634;2022-10-29T01:58:02;100661.41;;;10.28;100.00
34712;BME280;20941;42.408;25.634;2022-10-29T02:00:58;100677.72;;;10.32;100.00
34712;BME280;20941;42.408;25.634;2022-10-29T02:03:32;100678.00;;;10.35;100.00
34712;BME280;20941;42.408;25.634;2022-10-29T02:06:23;100651.59;;;10.16;100.00
34712;BME280;20941;42.408;25.634;2022-10-29T02:09:07;100672.94;;;10.32;100.00
34712;BME280;20941;42.408;25.634;2022-10-29T02:11:46;100606.03;;;9.88;100.00
34712;BME280;20941;42.408;25.634;2022-10-29T02:14:21;100669.03;;;10.23;100.00
34712;BME280;20941;42.408;25.634;2022-10-29T02:16:48;100663.41;;;10.23;100.00
34712;BME280;20941;42.408;25.634;2022-10-29T02:19:14;100649.59;;;10.16;100.00
34712;BME280;20941;42.408;25.634;2022-10-29T02:21:40;100600.72;;;9.91;100.00
34712;BME280;20941;42.408;25.634;2022-10-29T02:24:07;100635.84;;;10.09;100.00
34712;BME280;20941;42.408;25.634;2022-10-29T02:26:35;100608.56;;;9.89;100.00
34712;BME280;20941;42.408;25.634;2022-10-29T02:29:01;100681.66;;;10.25;100.00
34712;BME280;20941;42.408;25.634;2022-10-29T02:31:27;100602.66;;;9.80;100.00
34712;BME280;20941;42.408;25.634;2022-10-29T02:33:53;100654.41;;;10.10;100.00
34712;BME280;20941;42.408;25.634;2022-10-29T02:36:21;100604.66;;;9.80;100.00
34712;BME280;20941;42.408;25.634;2022-10-29T02:38:46;100638.38;;;10.01;100.00
34712;BME280;20941;42.408;25.634;2022-10-29T02:41:13;100652.44;;;10.06;100.00
34712;BME280;20941;42.408;25.634;2022-10-29T02:43:39;100640.31;;;10.05;100.00
34712;BME280;20941;42.408;25.634;2022-10-29T02:46:16;100658.91;;;10.22;100.00
34712;BME280;20941;42.408;25.634;2022-10-29T02:48:42;100602.66;;;9.86;100.00
34712;BME280;20941;42.408;25.634;2022-10-29T02:51:12;100626.88;;;10.18;100.00
34712;BME280;20941;42.408;25.634;2022-10-29T02:53:37;100644.25;;;10.25;100.00
34712;BME280;20941;42.408;25.634;2022-10-29T02:56:04;100645.69;;;10.27;100.00
34712;BME280;20941;42.408;25.634;2022-10-29T02:58:37;100651.03;;;10.29;100.00
34712;BME280;20941;42.408;25.634;2022-10-29T03:01:03;100595.91;;;9.92;100.00
34712;BME280;20941;42.408;25.634;2022-10-29T03:03:32;100636.69;;;10.15;100.00
34712;BME280;20941;42.408;25.634;2022-10-29T03:05:57;100658.88;;;10.27;100.00
34712;BME280;20941;42.408;25.634;2022-10-29T03:08:23;100602.69;;;9.91;100.00
34712;BME280;20941;42.408;25.634;2022-10-29T03:10:48;100618.13;;;9.99;100.00
34712;BME280;20941;42.408;25.634;2022-10-29T03:13:17;100648.50;;;10.17;100.00
34712;BME280;20941;42.408;25.634;2022-10-29T03:15:43;100603.78;;;9.79;100.00
34712;BME280;20941;42.408;25.634;2022-10-29T03:18:15;100627.97;;;9.91;100.00
34712;BME280;20941;42.408;25.634;2022-10-29T03:20:43;100578.22;;;9.55;100.00
34712;BME280;20941;42.408;25.634;2022-10-29T03:23:15;100658.03;;;9.95;100.00
34712;BME280;20941;42.408;25.634;2022-10-29T03:25:40;100591.13;;;9.51;100.00
34712;BME280;20941;42.408;25.634;2022-10-29T03:28:06;100590.00;;;9.47;100.00
34712;BME280;20941;42.408;25.634;2022-10-29T03:30:32;100626.25;;;9.64;100.00
34712;BME280;20941;42.408;25.634;2022-10-29T03:32:57;100637.50;;;9.69;100.00
34712;BME280;20941;42.408;25.634;2022-10-29T03:35:24;100579.03;;;9.30;100.00
34712;BME280;20941;42.408;25.634;2022-10-29T03:37:50;100639.75;;;9.62;100.00
34712;BME280;20941;42.408;25.634;2022-10-29T03:40:19;100578.72;;;9.16;100.00
34712;BME280;20941;42.408;25.634;2022-10-29T03:42:45;100634.06;;;9.46;100.00
34712;BME280;20941;42.408;25.634;2022-10-29T03:45:14;100632.13;;;9.42;100.00
34712;BME280;20941;42.408;25.634;2022-10-29T03:47:39;100637.16;;;9.35;100.00
34712;BME280;20941;42.408;25.634;2022-10-29T03:50:06;100634.59;;;9.33;100.00
34712;BME280;20941;42.408;25.634;2022-10-29T03:52:34;100522.13;;;8.61;100.00
34712;BME280;20941;42.408;25.634;2022-10-29T03:55:01;100624.47;;;9.17;100.00
34712;BME280;20941;42.408;25.634;2022-10-29T03:57:27;100617.97;;;9.06;100.00
34712;BME280;20941;42.408;25.634;2022-10-29T03:59:53;100584.47;;;8.78;100.00
34712;BME280;20941;42.408;25.634;2022-10-29T04:02:19;100629.19;;;9.06;100.00
34712;BME280;20941;42.408;25.634;2022-10-29T04:04:45;100602.72;;;8.86;100.00
34712;BME280;20941;42.408;25.634;2022-10-29T04:07:11;100638.16;;;9.03;100.00
34712;BME280;20941;42.408;25.634;2022-10-29T04:09:36;100623.28;;;9.07;100.00
34712;BME280;20941;42.408;25.634;2022-10-29T04:12:03;100622.22;;;9.19;100.00
34712;BME280;20941;42.408;25.634;2022-10-29T04:14:29;100625.63;;;9.31;100.00
34712;BME280;20941;42.408;25.634;2022-10-29T04:16:56;100609.91;;;9.25;100.00
34712;BME280;20941;42.408;25.634;2022-10-29T04:19:22;100615.00;;;9.48;100.00
34712;BME280;20941;42.408;25.634;2022-10-29T04:21:51;100609.97;;;9.61;100.00
34712;BME280;20941;42.408;25.634;2022-10-29T04:24:17;100626.25;;;9.79;100.00
34712;BME280;20941;42.408;25.634;2022-10-29T04:26:43;100618.97;;;9.84;100.00
34712;BME280;20941;42.408;25.634;2022-10-29T04:29:09;100589.75;;;9.74;100.00
34712;BME280;20941;42.408;25.634;2022-10-29T04:31:36;100621.22;;;10.07;100.00
34712;BME280;20941;42.408;25.634;2022-10-29T04:34:03;100626.88;;;10.18;100.00
34712;BME280;20941;42.408;25.634;2022-10-29T04:36:29;100604.38;;;10.18;100.00
34712;BME280;20941;42.408;25.634;2022-10-29T04:38:54;100608.88;;;10.24;100.00
34712;BME280;20941;42.408;25.634;2022-10-29T04:41:20;100581.00;;;10.17;100.00
34712;BME280;20941;42.408;25.634;2022-10-29T04:43:55;100610.00;;;10.43;100.00
34712;BME280;20941;42.408;25.634;2022-10-29T04:46:20;100631.88;;;10.52;100.00
34712;BME280;20941;42.408;25.634;2022-10-29T04:48:46;100595.91;;;10.33;100.00
34712;BME280;20941;42.408;25.634;2022-10-29T04:51:20;100598.16;;;10.41;100.00
34712;BME280;20941;42.408;25.634;2022-10-29T04:53:46;100616.16;;;10.46;100.00
34712;BME280;20941;42.408;25.634;2022-10-29T04:56:11;100609.41;;;10.57;100.00
34712;BME280;20941;42.408;25.634;2022-10-29T04:58:37;100635.19;;;10.80;100.00
34712;BME280;20941;42.408;25.634;2022-10-29T05:01:03;100634.06;;;10.81;100.00
34712;BME280;20941;42.408;25.634;2022-10-29T05:03:30;100633.22;;;10.85;100.00
34712;BME280;20941;42.408;25.634;2022-10-29T05:06:15;100548.66;;;10.40;100.00
34712;BME280;20941;42.408;25.634;2022-10-29T05:08:41;100561.56;;;10.57;100.00
34712;BME280;20941;42.408;25.634;2022-10-29T05:11:08;100571.13;;;10.61;99.17
34712;BME280;20941;42.408;25.634;2022-10-29T05:13:33;100589.13;;;10.60;94.48
34712;BME280;20941;42.408;25.634;2022-10-29T05:16:00;100621.75;;;10.61;91.42
34712;BME280;20941;42.408;25.634;2022-10-29T05:18:26;100613.06;;;10.32;90.57
34712;BME280;20941;42.408;25.634;2022-10-29T05:20:54;100638.66;;;10.35;89.62
34712;BME280;20941;42.408;25.634;2022-10-29T05:23:20;100588.06;;;9.94;89.10
34712;BME280;20941;42.408;25.634;2022-10-29T05:25:55;100628.25;;;10.05;88.04
34712;BME280;20941;42.408;25.634;2022-10-29T05:28:22;100592.00;;;9.57;88.23
34712;BME280;20941;42.408;25.634;2022-10-29T05:30:51;100653.78;;;9.67;87.97
34712;BME280;20941;42.408;25.634;2022-10-29T05:33:19;100615.22;;;9.31;88.02
34712;BME280;20941;42.408;25.634;2022-10-29T05:35:45;100612.69;;;9.20;88.24
34712;BME280;20941;42.408;25.634;2022-10-29T05:38:12;100610.44;;;9.22;88.56
34712;BME280;20941;42.408;25.634;2022-10-29T05:40:38;100644.78;;;9.50;92.04
34712;BME280;20941;42.408;25.634;2022-10-29T05:43:04;100631.25;;;9.36;94.44
34712;BME280;20941;42.408;25.634;2022-10-29T05:45:29;100635.19;;;9.40;94.72
34712;BME280;20941;42.408;25.634;2022-10-29T05:48:08;100651.50;;;9.54;95.41
34712;BME280;20941;42.408;25.634;2022-10-29T05:50:34;100653.78;;;9.62;94.86
34712;BME280;20941;42.408;25.634;2022-10-29T05:53:02;100655.47;;;9.58;95.49
34712;BME280;20941;42.408;25.634;2022-10-29T05:55:29;100668.41;;;9.64;94.73
34712;BME280;20941;42.408;25.634;2022-10-29T05:57:56;100653.72;;;9.41;93.03
34712;BME280;20941;42.408;25.634;2022-10-29T06:00:22;100674.84;;;9.54;92.82
34712;BME280;20941;42.408;25.634;2022-10-29T06:02:48;100665.53;;;9.48;92.31
34712;BME280;20941;42.408;25.634;2022-10-29T06:05:14;100668.94;;;9.51;92.19
34712;BME280;20941;42.408;25.634;2022-10-29T06:07:39;100648.13;;;9.46;91.44
34712;BME280;20941;42.408;25.634;2022-10-29T06:10:08;100674.31;;;9.68;91.46
34712;BME280;20941;42.408;25.634;2022-10-29T06:15:22;100649.91;;;9.78;90.88
34712;BME280;20941;42.408;25.634;2022-10-29T06:17:50;100661.13;;;9.94;90.78
34712;BME280;20941;42.408;25.634;2022-10-29T06:20:23;100644.25;;;9.94;90.44
34712;BME280;20941;42.408;25.634;2022-10-29T06:22:58;100658.88;;;10.06;90.87
34712;BME280;20941;42.408;25.634;2022-10-29T06:25:25;100665.06;;;10.19;90.68
34712;BME280;20941;42.408;25.634;2022-10-29T06:28:01;100683.38;;;10.42;90.90
34712;BME280;20941;42.408;25.634;2022-10-29T06:30:29;100676.88;;;10.52;89.97
34712;BME280;20941;42.408;25.634;2022-10-29T06:32:54;100663.38;;;10.59;89.20
34712;BME280;20941;42.408;25.634;2022-10-29T06:35:20;100647.06;;;10.61;88.56
34712;BME280;20941;42.408;25.634;2022-10-29T06:37:45;100678.53;;;10.89;88.94
34712;BME280;20941;42.408;25.634;2022-10-29T06:40:12;100665.53;;;10.98;87.97
34712;BME280;20941;42.408;25.634;2022-10-29T06:42:39;100671.13;;;11.14;87.42
34712;BME280;20941;42.408;25.634;2022-10-29T06:45:08;100636.25;;;10.99;86.33
34712;BME280;20941;42.408;25.634;2022-10-29T06:47:41;100653.00;;;11.30;85.32
34712;BME280;20941;42.408;25.634;2022-10-29T06:50:08;100680.56;;;11.44;84.37
34712;BME280;20941;42.408;25.634;2022-10-29T06:52:36;100662.22;;;11.46;83.99
34712;BME280;20941;42.408;25.634;2022-10-29T06:55:02;100640.81;;;11.45;83.84
34712;BME280;20941;42.408;25.634;2022-10-29T06:57:29;100688.56;;;11.76;83.40
34712;BME280;20941;42.408;25.634;2022-10-29T06:59:56;100656.16;;;11.74;83.98
34712;BME280;20941;42.408;25.634;2022-10-29T07:02:27;100666.81;;;11.82;85.54
34712;BME280;20941;42.408;25.634;2022-10-29T07:05:14;100685.28;;;12.03;87.23
34712;BME280;20941;42.408;25.634;2022-10-29T07:07:45;100679.81;;;12.23;88.66
34712;BME280;20941;42.408;25.634;2022-10-29T07:10:12;100649.25;;;12.00;91.61
34712;BME280;20941;42.408;25.634;2022-10-29T07:12:40;100670.69;;;12.31;92.01
34712;BME280;20941;42.408;25.634;2022-10-29T07:15:06;100623.72;;;12.16;91.50
34712;BME280;20941;42.408;25.634;2022-10-29T07:17:40;100677.47;;;12.59;91.33
34712;BME280;20941;42.408;25.634;2022-10-29T07:20:08;100687.38;;;12.86;90.91
34712;BME280;20941;42.408;25.634;2022-10-29T07:22:34;100643.03;;;12.62;90.87
34712;BME280;20941;42.408;25.634;2022-10-29T07:24:59;100678.00;;;12.91;90.65
34712;BME280;20941;42.408;25.634;2022-10-29T07:27:28;100660.88;;;12.82;91.52
34712;BME280;20941;42.408;25.634;2022-10-29T07:29:53;100642.31;;;12.76;91.06
34712;BME280;20941;42.408;25.634;2022-10-29T07:32:26;100674.72;;;13.08;90.63
34712;BME280;20941;42.408;25.634;2022-10-29T07:34:51;100682.53;;;13.16;89.34
34712;BME280;20941;42.408;25.634;2022-10-29T07:37:17;100635.00;;;12.99;88.66
34712;BME280;20941;42.408;25.634;2022-10-29T07:39:42;100678.75;;;13.26;88.43
34712;BME280;20941;42.408;25.634;2022-10-29T07:42:08;100682.84;;;13.39;89.20
34712;BME280;20941;42.408;25.634;2022-10-29T07:44:33;100651.19;;;13.37;92.10
34712;BME280;20941;42.408;25.634;2022-10-29T07:46:59;100664.66;;;13.45;93.16
34712;BME280;20941;42.408;25.634;2022-10-29T07:49:27;100625.38;;;13.24;93.25
34712;BME280;20941;42.408;25.634;2022-10-29T07:54:31;100666.97;;;13.43;92.63
34712;BME280;20941;42.408;25.634;2022-10-29T07:56:57;100631.63;;;13.21;93.16
34712;BME280;20941;42.408;25.634;2022-10-29T07:59:24;100674.47;;;13.53;91.35
34712;BME280;20941;42.408;25.634;2022-10-29T08:01:49;100685.94;;;13.61;91.36
34712;BME280;20941;42.408;25.634;2022-10-29T08:04:21;100668.03;;;13.47;92.70
34712;BME280;20941;42.408;25.634;2022-10-29T08:06:46;100678.59;;;13.60;92.29
34712;BME280;20941;42.408;25.634;2022-10-29T08:09:15;100661.09;;;13.58;91.16
34712;BME280;20941;42.408;25.634;2022-10-29T08:11:41;100673.69;;;13.47;90.58
34712;BME280;20941;42.408;25.634;2022-10-29T08:14:12;100686.53;;;13.58;90.07
34712;BME280;20941;42.408;25.634;2022-10-29T08:16:38;100626.69;;;13.32;90.43
34712;BME280;20941;42.408;25.634;2022-10-29T08:19:05;100662.19;;;13.62;90.80
34712;BME280;20941;42.408;25.634;2022-10-29T08:21:31;100683.72;;;13.77;90.34
34712;BME280;20941;42.408;25.634;2022-10-29T08:23:57;100671.66;;;13.72;90.08
34712;BME280;20941;42.408;25.634;2022-10-29T08:26:26;100630.63;;;13.55;90.55
34712;BME280;20941;42.408;25.634;2022-10-29T08:28:52;100614.72;;;13.59;90.68
34712;BME280;20941;42.408;25.634;2022-10-29T08:31:18;100663.31;;;14.00;89.77
34712;BME280;20941;42.408;25.634;2022-10-29T08:33:46;100668.44;;;14.17;88.31
34712;BME280;20941;42.408;25.634;2022-10-29T08:36:13;100646.81;;;14.07;87.08
34712;BME280;20941;42.408;25.634;2022-10-29T08:38:39;100628.94;;;13.92;86.87
34712;BME280;20941;42.408;25.634;2022-10-29T08:47:18;100657.09;;;14.50;85.74
34712;BME280;20941;42.408;25.634;2022-10-29T08:52:25;100647.25;;;14.80;84.30
34712;BME280;20941;42.408;25.634;2022-10-29T08:55:37;100653.50;;;14.77;84.16
34712;BME280;20941;42.408;25.634;2022-10-29T08:57:53;100607.31;;;14.63;83.13
34712;BME280;20941;42.408;25.634;2022-10-29T09:00:46;100644.19;;;14.90;81.89
34712;BME280;20941;42.408;25.634;2022-10-29T09:03:13;100646.50;;;14.88;81.95
34712;BME280;20941;42.408;25.634;2022-10-29T09:27:38;100585.09;;;15.26;78.89
34712;BME280;20941;42.408;25.634;2022-10-29T09:30:14;100608.63;;;15.63;78.75
34712;BME280;20941;42.408;25.634;2022-10-29T09:33:16;100586.47;;;15.65;78.73
34712;BME280;20941;42.408;25.634;2022-10-29T09:35:52;100600.06;;;15.91;78.13
34712;BME280;20941;42.408;25.634;2022-10-29T09:38:29;100590.41;;;15.92;76.26
34712;BME280;20941;42.408;25.634;2022-10-29T09:40:59;100585.47;;;16.06;75.82
34712;BME280;20941;42.408;25.634;2022-10-29T09:52:30;100584.94;;;16.49;73.63
34712;BME280;20941;42.408;25.634;2022-10-29T09:54:58;100558.69;;;16.52;73.25
34712;BME280;20941;42.408;25.634;2022-10-29T09:57:30;100558.91;;;16.65;72.50
34712;BME280;20941;42.408;25.634;2022-10-29T10:00:22;100480.97;;;16.31;72.08
34712;BME280;20941;42.408;25.634;2022-10-29T10:03:19;100553.16;;;16.88;70.32
34712;BME280;20941;42.408;25.634;2022-10-29T10:08:29;100545.06;;;17.12;68.29
34712;BME280;20941;42.408;25.634;2022-10-29T10:10:59;100544.25;;;17.21;68.45
34712;BME280;20941;42.408;25.634;2022-10-29T10:13:28;100535.22;;;17.36;68.05
34712;BME280;20941;42.408;25.634;2022-10-29T10:15:57;100483.69;;;17.11;67.54
34712;BME280;20941;42.408;25.634;2022-10-29T10:18:26;100524.38;;;17.47;67.43
34712;BME280;20941;42.408;25.634;2022-10-29T10:21:12;100517.03;;;17.55;66.81
34712;BME280;20941;42.408;25.634;2022-10-29T10:23:44;100524.38;;;17.64;66.34
34712;BME280;20941;42.408;25.634;2022-10-29T10:26:40;100510.47;;;17.80;65.39
34712;BME280;20941;42.408;25.634;2022-10-29T10:29:26;100513.63;;;17.88;64.86
34712;BME280;20941;42.408;25.634;2022-10-29T10:34:25;100509.44;;;18.11;63.63
34712;BME280;20941;42.408;25.634;2022-10-29T10:39:37;100498.56;;;18.14;62.97
34712;BME280;20941;42.408;25.634;2022-10-29T10:42:13;100489.63;;;18.24;62.50
34712;BME280;20941;42.408;25.634;2022-10-29T10:44:49;100479.69;;;18.39;61.16
34712;BME280;20941;42.408;25.634;2022-10-29T10:47:20;100486.66;;;18.50;61.27
34712;BME280;20941;42.408;25.634;2022-10-29T10:49:46;100477.25;;;18.58;60.17
34712;BME280;20941;42.408;25.634;2022-10-29T10:52:25;100482.44;;;18.65;59.87
34712;BME280;20941;42.408;25.634;2022-10-29T10:58:20;100471.94;;;18.78;58.18
34712;BME280;20941;42.408;25.634;2022-10-29T11:01:10;100461.50;;;18.91;57.27
34712;BME280;20941;42.408;25.634;2022-10-29T11:03:48;100440.22;;;18.88;56.42
34712;BME280;20941;42.408;25.634;2022-10-29T11:06:37;100456.47;;;18.88;57.97
34712;BME280;20941;42.408;25.634;2022-10-29T11:09:10;100456.28;;;18.93;57.51
34712;BME280;20941;42.408;25.634;2022-10-29T11:11:49;100428.81;;;18.88;56.87
34712;BME280;20941;42.408;25.634;2022-10-29T11:20:06;100437.53;;;19.34;54.48
34712;BME280;20941;42.408;25.634;2022-10-29T11:25:39;100429.66;;;19.52;53.29
34712;BME280;20941;42.408;25.634;2022-10-29T11:28:31;100425.03;;;19.60;53.77
34712;BME280;20941;42.408;25.634;2022-10-29T11:36:40;100409.50;;;19.82;51.17
34712;BME280;20941;42.408;25.634;2022-10-29T11:39:12;100395.88;;;19.88;51.44
34712;BME280;20941;42.408;25.634;2022-10-29T11:41:45;100381.13;;;19.86;50.80
34712;BME280;20941;42.408;25.634;2022-10-29T11:44:14;100381.69;;;19.79;50.31
34712;BME280;20941;42.408;25.634;2022-10-29T11:57:50;100385.44;;;20.17;49.04
34712;BME280;20941;42.408;25.634;2022-10-29T12:00:18;100379.97;;;20.24;49.01
34712;BME280;20941;42.408;25.634;2022-10-29T12:05:34;100369.72;;;20.23;48.72
34712;BME280;20941;42.408;25.634;2022-10-29T12:08:44;100370.47;;;20.32;49.01
34712;BME280;20941;42.408;25.634;2022-10-29T12:11:39;100364.84;;;20.36;48.94
34712;BME280;20941;42.408;25.634;2022-10-29T12:14:30;100356.91;;;20.42;48.43
34712;BME280;20941;42.408;25.634;2022-10-29T12:17:14;100362.00;;;20.48;48.30
34712;BME280;20941;42.408;25.634;2022-10-29T12:22:59;100333.19;;;20.41;47.70
34712;BME280;20941;42.408;25.634;2022-10-29T12:26:17;100350.06;;;20.46;47.46
34712;BME280;20941;42.408;25.634;2022-10-29T12:39:54;100290.97;;;20.34;46.77
34712;BME280;20941;42.408;25.634;2022-10-29T12:42:25;100306.88;;;20.48;46.89
34712;BME280;20941;42.408;25.634;2022-10-29T12:48:12;100332.31;;;20.78;46.07
34712;BME280;20941;42.408;25.634;2022-10-29T12:56:21;100324.22;;;20.67;46.41
34712;BME280;20941;42.408;25.634;2022-10-29T12:58:49;100332.06;;;20.83;46.31
34712;BME280;20941;42.408;25.634;2022-10-29T13:11:57;100319.16;;;20.89;45.28
34712;BME280;20941;42.408;25.634;2022-10-29T13:14:40;100314.19;;;20.86;45.48
34712;BME280;20941;42.408;25.634;2022-10-29T13:17:26;100308.69;;;20.93;45.66
34712;BME280;20941;42.408;25.634;2022-10-29T13:23:02;100310.03;;;20.83;45.75
34712;BME280;20941;42.408;25.634;2022-10-29T13:25:44;100267.59;;;20.45;46.29
34712;BME280;20941;42.408;25.634;2022-10-29T13:35:56;100298.28;;;20.73;45.78
34712;BME280;20941;42.408;25.634;2022-10-29T13:41:39;100292.03;;;20.71;45.59
34712;BME280;20941;42.408;25.634;2022-10-29T13:47:13;100288.38;;;20.70;45.88
34712;BME280;20941;42.408;25.634;2022-10-29T13:49:47;100252.81;;;20.55;45.67
34712;BME280;20941;42.408;25.634;2022-10-29T13:52:19;100283.47;;;20.71;45.58
34712;BME280;20941;42.408;25.634;2022-10-29T13:54:49;100282.31;;;20.72;45.36
34712;BME280;20941;42.408;25.634;2022-10-29T14:00:20;100287.31;;;20.75;45.38
34712;BME280;20941;42.408;25.634;2022-10-29T14:08:11;100275.69;;;20.55;46.14
34712;BME280;20941;42.408;25.634;2022-10-29T14:10:46;100265.47;;;20.42;46.26
34712;BME280;20941;42.408;25.634;2022-10-29T14:16:11;100237.06;;;20.20;46.13
34712;BME280;20941;42.408;25.634;2022-10-29T14:18:46;100233.25;;;20.16;46.09
34712;BME280;20941;42.408;25.634;2022-10-29T14:21:24;100272.63;;;20.35;46.59
34712;BME280;20941;42.408;25.634;2022-10-29T14:24:03;100260.53;;;20.14;46.61
34712;BME280;20941;42.408;25.634;2022-10-29T14:26:31;100262.66;;;20.04;46.56
34712;BME280;20941;42.408;25.634;2022-10-29T14:31:28;100251.13;;;20.01;46.74
34712;BME280;20941;42.408;25.634;2022-10-29T14:36:34;100255.63;;;19.77;47.60
34712;BME280;20941;42.408;25.634;2022-10-29T14:39:23;100269.66;;;19.70;48.06
34712;BME280;20941;42.408;25.634;2022-10-29T14:41:49;100269.53;;;19.66;48.34
34712;BME280;20941;42.408;25.634;2022-10-29T14:44:25;100273.56;;;19.65;48.65
34712;BME280;20941;42.408;25.634;2022-10-29T14:47:07;100258.22;;;19.45;48.92
34712;BME280;20941;42.408;25.634;2022-10-29T14:49:46;100235.63;;;19.28;49.04
34712;BME280;20941;42.408;25.634;2022-10-29T14:52:37;100260.72;;;19.47;49.45
34712;BME280;20941;42.408;25.634;2022-10-29T14:55:07;100269.75;;;19.36;49.43
34712;BME280;20941;42.408;25.634;2022-10-29T14:57:39;100250.44;;;19.21;49.25
34712;BME280;20941;42.408;25.634;2022-10-29T15:00:06;100272.75;;;19.19;49.94
34712;BME280;20941;42.408;25.634;2022-10-29T15:02:35;100276.44;;;19.07;50.07
34712;BME280;20941;42.408;25.634;2022-10-29T15:05:03;100259.44;;;18.98;50.34
34712;BME280;20941;42.408;25.634;2022-10-29T15:07:32;100258.84;;;18.84;50.80
34712;BME280;20941;42.408;25.634;2022-10-29T15:10:19;100263.56;;;18.80;51.16
34712;BME280;20941;42.408;25.634;2022-10-29T15:12:46;100264.50;;;18.71;51.59
34712;BME280;20941;42.408;25.634;2022-10-29T15:18:03;100213.09;;;18.04;52.13
34712;BME280;20941;42.408;25.634;2022-10-29T15:23:05;100246.97;;;17.97;53.14
34712;BME280;20941;42.408;25.634;2022-10-29T15:25:37;100269.41;;;17.90;53.77
34712;BME280;20941;42.408;25.634;2022-10-29T15:28:09;100265.50;;;17.73;54.39
34712;BME280;20941;42.408;25.634;2022-10-29T15:30:38;100258.69;;;17.57;54.66
34712;BME280;20941;42.408;25.634;2022-10-29T15:33:15;100284.06;;;17.71;54.30
34712;BME280;20941;42.408;25.634;2022-10-29T15:35:52;100292.63;;;17.62;54.70
34712;BME280;20941;42.408;25.634;2022-10-29T15:41:30;100286.66;;;17.46;54.84
34712;BME280;20941;42.408;25.634;2022-10-29T15:43:59;100300.44;;;17.35;55.46
34712;BME280;20941;42.408;25.634;2022-10-29T15:46:34;100257.19;;;17.03;55.80
34712;BME280;20941;42.408;25.634;2022-10-29T15:49:14;100304.97;;;17.19;56.47
34712;BME280;20941;42.408;25.634;2022-10-29T15:51:40;100257.38;;;16.80;56.61
34712;BME280;20941;42.408;25.634;2022-10-29T15:54:10;100300.81;;;17.07;57.12
34712;BME280;20941;42.408;25.634;2022-10-29T15:57:04;100302.81;;;16.80;57.97
34712;BME280;20941;42.408;25.634;2022-10-29T15:59:31;100287.78;;;16.62;58.14
34712;BME280;20941;42.408;25.634;2022-10-29T16:02:00;100323.69;;;16.84;58.26
34712;BME280;20941;42.408;25.634;2022-10-29T16:04:25;100256.56;;;16.45;58.75